Asotin, Washington
Current Conditions -  °F | °C
As of 10:56 AM on Tuesday 21 Oct 2014 (Local Time) from KLWS Reporting Station
Overcast Overcast  
Wind Chill: 57°   Ceiling: 6000
Heat Index: 57°   Visibility: 10mi
Dew Point: 50°   Wind: 0mph
Humidity: 77%   Direction: NA
Pressure: 29.94"   Gusts: NA
Location:  46.34°N, 117.05°W
Report Text: KLWS 211756Z 00000KT 10SM OVC060 14/10 A2994 RMK AO2 SLP139 T01390100 10139 20106 51014
Loading
Personal Weather Stations






























Interactive Weather Map
Tropical Storm Tracking
New forecast layout! Learn more

10-Day Weather Forecast

Advertisements
Track Severe Weather on mobile